AirNav   Everest Fuels
 
 465 users online  

50AK Robin's Landing Airport
Point Mackenzie, Alaska, USA

GOING TO POINT MACKENZIE?


FAA INFORMATION EFFECTIVE 18 JUNE 2020

Location

FAA Identifier: 50AK
Lat/Long: 61-22-49.6600N 150-06-58.5000W
61-22.827667N 150-06.975000W
61.3804611,-150.1162500
(estimated)
Elevation: 95 ft. / 29 m (estimated)
Time zone: UTC -8 (UTC -9 during Standard Time)
Zip code: 99501

Airport Operations

Airport use: Private use. Permission required prior to landing
Activation date: 02/2007
Control tower: no
ARTCC: ANCHORAGE CENTER
FSS: KENAI FLIGHT SERVICE STATION [907-283-7211]
Attendance: UNATTND
Wind indicator: yes
Segmented circle: no

Airport Communications

CTAF: 122.9
WX ASOS at LHD (12 nm S): PHONE 907-245-5432
WX ASOS at MRI (13 nm SE): 124.25 (907-271-5277)
WX ASOS at ANC (13 nm S): PHONE 907-271-5278
WX ASOS at FRN (15 nm SE): 134.25
WX AWOS-3P at BCV (18 nm E): 135.55 (907-688-0826)

Nearby radio navigation aids

VOR radial/distance  VOR name  Freq  Var
BGQr182/12.1BIG LAKE VORTAC112.5019E
TEDr323/13.5ANCHORAGE VOR/DME113.1518E

 
NDB name  Hdg/Dist  Freq  Var  ID
CAMPBELL LAKE335/12.733816ECMQ -.-. -- --.-

Airport Services

Runway Information

Runway 16/34

Dimensions: 2500 x 40 ft. / 762 x 12 m
Surface: gravel
RUNWAY 16  RUNWAY 34
Traffic pattern: leftleft

Airport Ownership and Management from official FAA records

Ownership: Privately-owned
Owner: RICHARD GATTIS
1650 W. SHORELINE DR.
WASILLA, AK 99654
Phone 907-373-0300
Manager: RICHARD GATTIS
1650 W. SHORELINE DR.
WASILLA, AK 99654
Phone 907-373-0300
CELL # 907-841-0507

Airport Operational Statistics

Aircraft based on the field: 3
Single engine airplanes: 3
    

Additional Remarks

A52-34 50 FT TREES & POWER LINE LOCATED AT RY 34 THLD.

Instrument Procedures

There are no published instrument procedures at 50AK.

Some nearby airports with instrument procedures:

PAED - Elmendorf Air Force Base (12 nm SE)
PAGQ - Big Lake Airport (13 nm NE)
PAMR - Merrill Field Airport (13 nm SE)
PANC - Ted Stevens Anchorage International Airport (13 nm S)
PAFR - Bryant Army Airfield Heliport (15 nm SE)
 
Loc | Ops | Rwys | IFR | FBO | Links
Com | Nav | Svcs | Stats | Notes

Crowley
 
Area around 50AK (Robin's Landing Airport)
 
Road maps at: MapQuest Bing Google
 
Aerial photo
WARNING: Photo may not be current or correct
Aerial photo of 50AK (Robin's Landing Airport)
Taken in June 2007

Do you have a better or more recent aerial photo of Robin's Landing Airport that you would like to share? If so, please send us your photo.

 
Sectional chart

 
Airport distance calculator
Flying to Robin's Landing Airport? Find the distance to fly.

From to 50AK

Sunrise and sunset
Times for 11-Jul-2020
 Local
(UTC-8)
 Zulu
(UTC)
Morning civil twilight03:0111:01
Sunrise04:4612:46
Sunset23:2707:27
Evening civil twilight01:1109:11

Current date and time
Zulu (UTC)  11-Jul-2020 11:00:13
Local (UTC-8)  11-Jul-2020 03:00:13
 
METAR
PAED 
12nm SE 
110956Z 15004KT 10SM BKN031 16/12 A2976 RMK AO2A SLP073 T01590115 $
PAMR 
12nm SE 
111053Z 00000KT 10SM OVC043 16/10 A2975 RMK AO2 SLP075 T01560100
PALH 
13nm S 
111053Z 18004KT 10SM BKN045 OVC060 15/12 A2976 RMK AO2 SLP080 T01500122
PANC 
13nm S 
111053Z 18004KT 10SM OVC047 14/12 A2975 RMK AO2 SLP076 T01440117
PAFR 
15nm SE 
111048Z AUTO 00000KT 10SM SCT028 BKN034 BKN260 13/12 A2974 RMK AO2 SLP076 $
PABV 
17nm E 
110956Z AUTO 25003KT 10SM FEW003 SCT046 OVC090 13/13 A2977 RMK AO2 RAB24E35 SLP086 P0000 T01330128
TAF
PAED 
12nm SE 
111000Z 1110/1216 VRB05KT 9999 FEW010 BKN030 QNH2972INS BECMG 1119/1120 24009KT 9999 VCSH BKN050 QNH2970INS BECMG 1201/1202 25009KT 8000 -SHRA BKN040 QNH2970INS BECMG 1207/1208 VRB04KT 9999 VCSH BKN040 QNH2972INS TX20/1202Z TN13/1113Z
PANC 
13nm S 
110522Z 1106/1212 16006KT P6SM VCSH BKN070 FM112100 27008KT P6SM VCSH BKN070 FM120300 17015KT P6SM VCSH BKN070
NOTAMs
Click for the latest NOTAMs
NOTAMs are issued by the DoD/FAA and will open in a separate window not controlled by AirNav.

 

 
 

Would you like to see your business listed on this page?

 If your business provides an interesting product or service to pilots, flight crews, aircraft, or users of the Robin's Landing Airport, you should consider listing it here.  To start the listing process, click on the button below
 
Add a business
 

Other Pages about Robin's Landing Airport

Update a link
 
Copyright © AirNav, LLC. All rights reserved. Privacy Policy  Contact